createdAt,value
2017-02-01T00:00:46.489Z,44.82
2017-02-01T00:01:57.152Z,44.62
2017-02-01T00:03:07.404Z,44.82
2017-02-01T00:04:17.647Z,44.62
2017-02-01T00:05:28.158Z,44.62
2017-02-01T00:06:38.797Z,44.79
2017-02-01T00:07:48.647Z,44.62
2017-02-01T00:08:58.879Z,44.7
2017-02-01T00:10:08.749Z,44.79
2017-02-01T00:11:18.460Z,44.79
2017-02-01T00:12:29.093Z,44.72
2017-02-01T00:13:39.729Z,44.82
2017-02-01T00:14:49.973Z,44.6
2017-02-01T00:16:00.221Z,44.79
2017-02-01T00:17:10.712Z,44.79
2017-02-01T00:18:21.349Z,44.62
2017-02-01T00:19:31.187Z,44.72
2017-02-01T00:20:41.814Z,44.72
2017-02-01T00:21:52.052Z,44.82
2017-02-01T00:23:02.843Z,44.79
2017-02-01T00:24:12.695Z,44.79
2017-02-01T00:25:23.340Z,44.7
2017-02-01T00:26:33.191Z,44.79
2017-02-01T00:27:43.836Z,44.79
2017-02-01T00:28:54.333Z,44.62
2017-02-01T00:30:04.178Z,44.79
2017-02-01T00:31:14.417Z,44.99
2017-02-01T00:32:24.667Z,44.79
2017-02-01T00:33:34.932Z,44.82
2017-02-01T00:34:45.441Z,44.7
2017-02-01T00:35:55.688Z,44.89
2017-02-01T00:37:05.538Z,44.89
2017-02-01T00:38:14.615Z,44.79
2017-02-01T00:39:25.262Z,44.91
2017-02-01T00:40:35.775Z,44.79
2017-02-01T00:41:45.624Z,44.89
2017-02-01T00:42:55.875Z,44.89
2017-02-01T00:44:05.732Z,44.91
2017-02-01T00:45:16.376Z,44.7
2017-02-01T00:46:27.253Z,44.72
2017-02-01T00:47:37.884Z,44.79
2017-02-01T00:48:47.355Z,44.7
2017-02-01T00:49:57.985Z,44.89
2017-02-01T00:51:08.615Z,44.62
2017-02-01T00:52:19.131Z,44.62
2017-02-01T00:53:29.746Z,44.62
2017-02-01T00:54:39.984Z,44.91
2017-02-01T00:55:50.612Z,44.79
2017-02-01T00:57:01.250Z,44.34
2017-02-01T00:58:11.357Z,44.82
2017-02-01T00:59:21.599Z,44.43
2017-02-01T01:00:31.073Z,44.51
2017-02-01T01:01:41.708Z,44.53
2017-02-01T01:02:52.329Z,44.53
2017-02-01T01:04:02.877Z,44.24
2017-02-01T01:05:13.506Z,44.22
2017-02-01T01:06:24.128Z,44.41
2017-02-01T01:07:34.390Z,44.41
2017-02-01T01:08:45.026Z,44.43
2017-02-01T01:09:55.916Z,44.43
2017-02-01T01:11:06.179Z,44.6
2017-02-01T01:12:16.032Z,44.34
2017-02-01T01:13:25.888Z,44.31
2017-02-01T01:14:36.511Z,44.41
2017-02-01T01:15:46.997Z,44.53
2017-02-01T01:16:57.233Z,44.51
2017-02-01T01:18:07.872Z,44.6
2017-02-01T01:19:17.332Z,44.51
2017-02-01T01:20:27.572Z,44.41
2017-02-01T01:21:38.450Z,44.41
2017-02-01T01:22:48.705Z,44.43
2017-02-01T01:23:58.969Z,44.51
2017-02-01T01:25:09.612Z,44.62
2017-02-01T01:26:19.069Z,44.79
2017-02-01T01:27:29.957Z,44.72
2017-02-01T01:28:40.596Z,44.82
2017-02-01T01:29:50.838Z,44.79
2017-02-01T01:31:01.085Z,44.72
2017-02-01T01:32:11.325Z,44.7
2017-02-01T01:33:21.039Z,44.79
2017-02-01T01:34:31.277Z,44.6
2017-02-01T01:35:41.506Z,44.6
2017-02-01T01:36:52.143Z,44.6
2017-02-01T01:38:01.619Z,44.51
2017-02-01T01:39:11.716Z,44.51
2017-02-01T01:40:21.954Z,44.41
2017-02-01T01:41:32.620Z,44.31
2017-02-01T01:42:42.866Z,44.22
2017-02-01T01:43:52.721Z,44.02
2017-02-01T01:45:03.226Z,44.02
2017-02-01T01:46:13.461Z,44.31
2017-02-01T01:47:23.709Z,44.22
2017-02-01T01:48:34.359Z,44.05
2017-02-01T01:49:45.015Z,44.22
2017-02-01T01:50:55.891Z,44.14
2017-02-01T01:52:06.144Z,44.12
2017-02-01T01:53:16.392Z,44.12
2017-02-01T01:54:26.623Z,44.12
2017-02-01T01:55:36.881Z,44.12
2017-02-01T01:56:47.427Z,44.02
2017-02-01T01:57:57.288Z,44.12
2017-02-01T01:59:07.534Z,44.02
2017-02-01T02:00:17.384Z,44.02
2017-02-01T02:01:27.643Z,44.02
2017-02-01T02:02:38.177Z,44.02
2017-02-01T02:03:48.409Z,44.12
2017-02-01T02:04:59.352Z,44.02
2017-02-01T02:06:09.983Z,44.31
2017-02-01T02:07:20.252Z,44.12
2017-02-01T02:08:31.131Z,44.31
2017-02-01T02:09:41.760Z,43.93
2017-02-01T02:10:52.001Z,44.02
2017-02-01T02:12:02.624Z,44.41
2017-02-01T02:13:12.488Z,44.12
2017-02-01T02:14:22.978Z,44.02
2017-02-01T02:15:33.615Z,43.93
2017-02-01T02:16:44.285Z,44.31
2017-02-01T02:17:54.135Z,43.93
2017-02-01T02:19:04.378Z,43.93
2017-02-01T02:20:14.483Z,44.02
2017-02-01T02:21:24.717Z,43.93
2017-02-01T02:22:35.336Z,44.41
2017-02-01T02:23:44.790Z,43.93
2017-02-01T02:24:55.420Z,43.93
2017-02-01T02:26:06.320Z,43.93
2017-02-01T02:27:16.568Z,44.22
2017-02-01T02:28:27.211Z,44.22
2017-02-01T02:29:37.833Z,43.93
2017-02-01T02:30:48.460Z,44.22
2017-02-01T02:31:58.947Z,44.02
2017-02-01T02:33:08.803Z,43.64
2017-02-01T02:34:19.044Z,43.64
2017-02-01T02:35:29.675Z,43.84
2017-02-01T02:36:40.339Z,43.84
2017-02-01T02:37:50.833Z,43.93
2017-02-01T02:39:01.474Z,43.84
2017-02-01T02:40:12.117Z,43.93
2017-02-01T02:41:22.357Z,43.93
2017-02-01T02:42:32.987Z,43.93
2017-02-01T02:43:43.861Z,43.84
2017-02-01T02:44:53.332Z,43.93
2017-02-01T02:46:03.192Z,43.93
2017-02-01T02:47:13.043Z,44.02
2017-02-01T02:48:23.679Z,43.93
2017-02-01T02:49:34.175Z,44.02
2017-02-01T02:50:44.418Z,44.02
2017-02-01T02:51:54.667Z,44.02
2017-02-01T02:53:04.916Z,44.02
2017-02-01T02:54:15.548Z,43.74
2017-02-01T02:55:26.480Z,44.02
2017-02-01T02:56:35.961Z,43.74
2017-02-01T02:57:45.805Z,43.74
2017-02-01T02:58:56.104Z,43.93
2017-02-01T03:00:06.742Z,43.74
2017-02-01T03:01:17.188Z,43.74
2017-02-01T03:02:27.058Z,43.64
2017-02-01T03:03:36.936Z,43.64
2017-02-01T03:04:47.576Z,43.64
2017-02-01T03:05:58.217Z,43.74
2017-02-01T03:07:09.104Z,43.74
2017-02-01T03:08:19.738Z,43.74
2017-02-01T03:09:29.979Z,43.74
2017-02-01T03:10:40.212Z,43.74
2017-02-01T03:11:50.069Z,43.64
2017-02-01T03:13:00.562Z,43.64
2017-02-01T03:14:10.425Z,43.84
2017-02-01T03:15:20.273Z,43.84
2017-02-01T03:16:30.928Z,43.84
2017-02-01T03:17:41.227Z,43.64
2017-02-01T03:18:51.329Z,43.64
2017-02-01T03:20:01.567Z,43.64
2017-02-01T03:21:11.812Z,43.93
2017-02-01T03:22:22.466Z,43.84
2017-02-01T03:23:32.716Z,43.93
2017-02-01T03:24:43.213Z,44.02
2017-02-01T03:25:53.460Z,43.93
2017-02-01T03:27:03.712Z,44.02
2017-02-01T03:28:14.383Z,43.64
2017-02-01T03:29:24.640Z,43.74
2017-02-01T03:30:35.522Z,43.74
2017-02-01T03:31:46.153Z,43.74
2017-02-01T03:32:56.018Z,43.93
2017-02-01T03:34:05.886Z,43.84
2017-02-01T03:35:16.524Z,43.35
2017-02-01T03:36:27.544Z,43.45
2017-02-01T03:37:37.807Z,43.35
2017-02-01T03:38:48.047Z,43.45
2017-02-01T03:39:58.693Z,43.45
2017-02-01T03:41:08.559Z,43.64
2017-02-01T03:42:19.441Z,43.64
2017-02-01T03:43:30.083Z,43.54
2017-02-01T03:44:40.352Z,43.35
2017-02-01T03:45:50.600Z,43.45
2017-02-01T03:47:00.848Z,43.35
2017-02-01T03:48:10.162Z,43.35
2017-02-01T03:49:20.400Z,43.35
2017-02-01T03:50:31.029Z,43.35
2017-02-01T03:51:41.267Z,43.35
2017-02-01T03:52:51.897Z,43.45
2017-02-01T03:54:02.011Z,43.35
2017-02-01T03:55:12.263Z,43.35
2017-02-01T03:56:22.893Z,43.35
2017-02-01T03:57:33.540Z,43.45
2017-02-01T03:58:43.782Z,43.54
2017-02-01T03:59:54.657Z,43.45
2017-02-01T04:01:04.905Z,43.54
2017-02-01T04:02:15.568Z,43.64
2017-02-01T04:03:26.233Z,43.45
2017-02-01T04:04:36.905Z,43.54
2017-02-01T04:05:47.010Z,43.64
2017-02-01T04:06:57.636Z,43.64
2017-02-01T04:08:08.265Z,43.64
2017-02-01T04:09:18.927Z,43.64
2017-02-01T04:10:29.565Z,43.45
2017-02-01T04:11:39.676Z,43.74
2017-02-01T04:12:49.926Z,43.54
2017-02-01T04:13:59.775Z,43.54
2017-02-01T04:15:10.024Z,43.54
2017-02-01T04:16:20.651Z,43.35
2017-02-01T04:17:30.365Z,43.54
2017-02-01T04:18:40.630Z,43.64
2017-02-01T04:19:50.875Z,43.45
2017-02-01T04:21:01.116Z,43.26
2017-02-01T04:22:10.976Z,43.35
2017-02-01T04:23:21.405Z,43.45
2017-02-01T04:24:31.641Z,43.35
2017-02-01T04:25:41.909Z,43.26
2017-02-01T04:26:52.182Z,43.16
2017-02-01T04:28:02.818Z,42.87
2017-02-01T04:29:13.312Z,43.16
2017-02-01T04:30:23.937Z,42.87
2017-02-01T04:31:33.788Z,43.16
2017-02-01T04:32:44.416Z,43.07
2017-02-01T04:33:55.050Z,43.26
2017-02-01T04:35:05.458Z,43.16
2017-02-01T04:36:15.709Z,43.07
2017-02-01T04:37:25.941Z,43.16
2017-02-01T04:38:36.610Z,43.16
2017-02-01T04:39:46.851Z,43.16
2017-02-01T04:40:56.958Z,42.87
2017-02-01T04:42:07.202Z,42.87
2017-02-01T04:43:17.450Z,42.87
2017-02-01T04:44:27.690Z,42.87
2017-02-01T04:45:38.341Z,42.87
2017-02-01T04:46:49.222Z,42.97
2017-02-01T04:47:59.885Z,42.77
2017-02-01T04:49:10.126Z,42.97
2017-02-01T04:50:20.760Z,42.77
2017-02-01T04:51:31.005Z,42.97
2017-02-01T04:52:41.894Z,42.87
2017-02-01T04:53:52.533Z,42.97
2017-02-01T04:55:02.789Z,42.68
2017-02-01T04:56:12.656Z,42.68
2017-02-01T04:57:22.897Z,42.68
2017-02-01T04:58:32.997Z,42.77
2017-02-01T04:59:43.246Z,42.58
2017-02-01T05:00:53.490Z,42.68
2017-02-01T05:02:04.129Z,42.87
2017-02-01T05:03:14.769Z,42.77
2017-02-01T05:04:25.745Z,42.77
2017-02-01T05:05:35.483Z,42.77
2017-02-01T05:06:45.332Z,42.68
2017-02-01T05:07:55.584Z,42.87
2017-02-01T05:09:06.221Z,42.58
2017-02-01T05:10:16.719Z,42.87
2017-02-01T05:11:26.953Z,43.07
2017-02-01T05:12:37.196Z,43.07
2017-02-01T05:13:47.436Z,42.97
2017-02-01T05:14:57.683Z,42.97
2017-02-01T05:16:08.557Z,42.49
2017-02-01T05:17:19.205Z,42.97
2017-02-01T05:18:29.841Z,42.58
2017-02-01T05:19:40.481Z,42.58
2017-02-01T05:20:50.729Z,42.58
2017-02-01T05:22:01.220Z,42.58
2017-02-01T05:23:11.848Z,42.77
2017-02-01T05:24:22.097Z,42.58
2017-02-01T05:25:32.358Z,42.68
2017-02-01T05:26:42.996Z,42.68
2017-02-01T05:27:53.491Z,42.68
2017-02-01T05:29:02.950Z,42.77
2017-02-01T05:30:13.205Z,42.77
2017-02-01T05:31:23.442Z,42.68
2017-02-01T05:32:33.295Z,42.77
2017-02-01T05:33:43.451Z,42.58
2017-02-01T05:34:52.910Z,42.68
2017-02-01T05:36:03.163Z,42.68
2017-02-01T05:37:13.801Z,42.68
2017-02-01T05:38:23.274Z,42.49
2017-02-01T05:39:33.797Z,42.2
2017-02-01T05:40:43.655Z,42.2
2017-02-01T05:41:53.927Z,42.1
2017-02-01T05:43:04.604Z,42.2
2017-02-01T05:44:14.867Z,41.91
2017-02-01T05:45:25.752Z,42
2017-02-01T05:46:35.991Z,41.91
2017-02-01T05:47:46.242Z,41.83
2017-02-01T05:48:56.482Z,41.64
2017-02-01T05:50:06.723Z,41.16
2017-02-01T05:51:16.835Z,41.16
2017-02-01T05:52:27.072Z,41.06
2017-02-01T05:53:37.711Z,40.78
2017-02-01T05:54:47.590Z,40.89
2017-02-01T05:55:58.240Z,40.58
2017-02-01T05:57:08.740Z,40.41
2017-02-01T05:58:19.374Z,40.61
2017-02-01T05:59:29.616Z,40.51
2017-02-01T06:00:39.858Z,40.61
2017-02-01T06:01:50.502Z,40.61
2017-02-01T06:03:01.381Z,40.31
2017-02-01T06:04:11.652Z,40.34
2017-02-01T06:05:22.281Z,40.22
2017-02-01T06:06:32.529Z,39.95
2017-02-01T06:07:42.787Z,39.66
2017-02-01T06:08:53.279Z,39.95
2017-02-01T06:10:03.935Z,39.66
2017-02-01T06:11:13.799Z,39.66
2017-02-01T06:12:24.054Z,39.66
2017-02-01T06:13:34.325Z,39.66
2017-02-01T06:14:45.208Z,39.47
2017-02-01T06:15:54.677Z,39.09
2017-02-01T06:17:05.206Z,39.28
2017-02-01T06:18:15.835Z,39.18
2017-02-01T06:19:26.498Z,39.37
2017-02-01T06:20:36.636Z,39.49
2017-02-01T06:21:47.273Z,39.01
2017-02-01T06:22:57.912Z,39.01
2017-02-01T06:24:08.150Z,38.81
2017-02-01T06:25:18.079Z,39.01
2017-02-01T06:26:28.968Z,39.2
2017-02-01T06:27:39.229Z,38.81
2017-02-01T06:28:49.862Z,39.2
2017-02-01T06:30:00.510Z,39.39
2017-02-01T06:31:10.374Z,39.01
2017-02-01T06:32:21.341Z,39.11
2017-02-01T06:33:31.581Z,38.54
2017-02-01T06:34:41.828Z,38.64
2017-02-01T06:35:52.076Z,38.64
2017-02-01T06:37:01.932Z,38.54
2017-02-01T06:38:12.452Z,38.45
2017-02-01T06:39:23.086Z,38.45
2017-02-01T06:40:33.717Z,38.26
2017-02-01T06:41:44.417Z,38.16
2017-02-01T06:42:54.292Z,38.26
2017-02-01T06:44:05.192Z,38.26
2017-02-01T06:45:15.835Z,38.26
2017-02-01T06:46:26.077Z,38.26
2017-02-01T06:47:36.712Z,38.45
2017-02-01T06:48:46.962Z,38.46
2017-02-01T06:49:57.460Z,38.26
2017-02-01T06:51:07.313Z,38.08
2017-02-01T06:52:17.559Z,38.28
2017-02-01T06:53:27.418Z,38.08
2017-02-01T06:54:37.809Z,38.08
2017-02-01T06:55:48.304Z,37.79
2017-02-01T06:56:58.945Z,37.7
2017-02-01T06:58:09.189Z,37.7
2017-02-01T06:59:20.050Z,37.7
2017-02-01T07:00:30.708Z,37.89
2017-02-01T07:01:40.969Z,37.89
2017-02-01T07:02:51.226Z,37.81
2017-02-01T07:04:01.484Z,37.89
2017-02-01T07:05:12.133Z,37.89
2017-02-01T07:06:22.384Z,37.98
2017-02-01T07:07:32.903Z,37.98
2017-02-01T07:08:43.542Z,38.28
2017-02-01T07:09:53.786Z,38.66
2017-02-01T07:11:04.440Z,39.22
2017-02-01T07:12:15.089Z,39.41
2017-02-01T07:13:25.601Z,39.41
2017-02-01T07:14:35.465Z,39.61
2017-02-01T07:15:46.137Z,39.41
2017-02-01T07:16:56.796Z,39.61
2017-02-01T07:18:06.305Z,39.51
2017-02-01T07:19:16.418Z,39.03
2017-02-01T07:20:26.666Z,39.31
2017-02-01T07:21:36.904Z,39.51
2017-02-01T07:22:46.777Z,39.51
2017-02-01T07:23:57.465Z,39.51
2017-02-01T07:25:07.987Z,39.41
2017-02-01T07:26:18.628Z,39.51
2017-02-01T07:27:29.283Z,39.12
2017-02-01T07:28:39.938Z,38.93
2017-02-01T07:29:50.205Z,39.12
2017-02-01T07:31:00.611Z,39.12
2017-02-01T07:32:10.873Z,38.93
2017-02-01T07:33:20.737Z,39.03
2017-02-01T07:34:31.384Z,38.93
2017-02-01T07:35:42.034Z,38.83
2017-02-01T07:36:53.016Z,39.03
2017-02-01T07:38:03.289Z,38.83
2017-02-01T07:39:13.951Z,38.83
2017-02-01T07:40:24.190Z,38.83
2017-02-01T07:41:34.462Z,39.03
2017-02-01T07:42:45.344Z,39.61
2017-02-01T07:43:56.313Z,38.83
2017-02-01T07:45:06.626Z,39.61
2017-02-01T07:46:17.021Z,39.61
2017-02-01T07:47:27.803Z,39.41
2017-02-01T07:48:38.695Z,39.31
2017-02-01T07:49:48.945Z,39.51
2017-02-01T07:50:59.478Z,39.51
2017-02-01T07:52:10.123Z,39.22
2017-02-01T07:53:20.777Z,39.31
2017-02-01T07:54:30.889Z,39.22
2017-02-01T07:55:41.179Z,39.12
2017-02-01T07:56:51.441Z,39.51
2017-02-01T07:58:00.932Z,39.51
2017-02-01T07:59:11.575Z,39.79
2017-02-01T08:00:22.465Z,39.68
2017-02-01T08:01:33.103Z,39.7
2017-02-01T08:02:43.350Z,39.87
2017-02-01T08:03:53.993Z,39.87
2017-02-01T08:05:03.887Z,39.97
2017-02-01T08:06:13.998Z,39.59
2017-02-01T08:07:24.652Z,39.78
2017-02-01T08:08:35.309Z,40.07
2017-02-01T08:09:45.239Z,39.97
2017-02-01T08:10:55.889Z,40.07
2017-02-01T08:12:06.805Z,39.97
2017-02-01T08:13:17.083Z,39.97
2017-02-01T08:14:27.432Z,39.68
2017-02-01T08:15:38.064Z,40.07
2017-02-01T08:16:48.313Z,40.07
2017-02-01T08:17:59.193Z,39.97
2017-02-01T08:19:09.441Z,39.87
2017-02-01T08:20:19.696Z,40.55
2017-02-01T08:21:30.352Z,40.55
2017-02-01T08:22:40.206Z,40.26
2017-02-01T08:23:50.363Z,40.26
2017-02-01T08:25:00.619Z,40.36
2017-02-01T08:26:10.078Z,40.36
2017-02-01T08:27:20.339Z,40.36
2017-02-01T08:28:30.968Z,40.26
2017-02-01T08:29:41.479Z,40.55
2017-02-01T08:30:51.342Z,40.55
2017-02-01T08:32:01.660Z,40.45
2017-02-01T08:33:11.522Z,40.55
2017-02-01T08:34:21.774Z,40.55
2017-02-01T08:35:32.271Z,40.55
2017-02-01T08:36:42.906Z,40.45
2017-02-01T08:37:53.188Z,40.45
2017-02-01T08:39:02.803Z,40.53
2017-02-01T08:40:13.055Z,40.55
2017-02-01T08:41:23.557Z,40.64
2017-02-01T08:42:33.810Z,40.74
2017-02-01T08:43:44.492Z,40.64
2017-02-01T08:44:54.753Z,40.72
2017-02-01T08:46:04.618Z,40.72
2017-02-01T08:47:15.534Z,40.53
2017-02-01T08:48:25.788Z,40.53
2017-02-01T08:49:36.490Z,40.72
2017-02-01T08:50:46.346Z,40.81
2017-02-01T08:51:56.982Z,40.72
2017-02-01T08:53:07.395Z,40.91
2017-02-01T08:54:17.652Z,40.72
2017-02-01T08:55:27.905Z,40.91
2017-02-01T08:56:37.761Z,40.72
2017-02-01T08:57:47.620Z,40.63
2017-02-01T08:58:57.748Z,40.91
2017-02-01T09:00:08.009Z,40.91
2017-02-01T09:01:17.878Z,40.81
2017-02-01T09:02:28.540Z,40.91
2017-02-01T09:03:38.432Z,41.01
2017-02-01T09:04:49.334Z,40.91
2017-02-01T09:05:59.990Z,40.81
2017-02-01T09:07:10.522Z,40.72
2017-02-01T09:08:20.382Z,40.81
2017-02-01T09:09:31.014Z,41.01
2017-02-01T09:10:41.532Z,40.91
2017-02-01T09:11:52.213Z,41.11
2017-02-01T09:13:02.976Z,41.01
2017-02-01T09:14:12.452Z,40.91
2017-02-01T09:15:22.316Z,41.01
2017-02-01T09:16:33.228Z,40.81
2017-02-01T09:17:43.087Z,41.01
2017-02-01T09:18:53.727Z,41.01
2017-02-01T09:20:04.364Z,40.91
2017-02-01T09:21:15.003Z,41.01
2017-02-01T09:22:25.529Z,41.2
2017-02-01T09:23:35.793Z,41.11
2017-02-01T09:24:46.433Z,41.01
2017-02-01T09:25:57.072Z,41.01
2017-02-01T09:27:07.713Z,41.2
2017-02-01T09:28:18.232Z,41.11
2017-02-01T09:29:28.101Z,41.2
2017-02-01T09:30:38.360Z,41.2
2017-02-01T09:31:48.613Z,41.2
2017-02-01T09:32:59.252Z,41.2
2017-02-01T09:34:09.755Z,41.11
2017-02-01T09:35:20.000Z,41.2
2017-02-01T09:36:30.645Z,41.2
2017-02-01T09:37:40.885Z,41.2
2017-02-01T09:38:50.752Z,41.01
2017-02-01T09:40:01.677Z,41.2
2017-02-01T09:41:12.323Z,41.11
2017-02-01T09:42:22.185Z,41.01
2017-02-01T09:43:32.470Z,41.01
2017-02-01T09:44:42.728Z,41.01
2017-02-01T09:45:52.845Z,41.11
2017-02-01T09:47:02.708Z,41.01
2017-02-01T09:48:12.966Z,41.01
2017-02-01T09:49:23.211Z,41.01
2017-02-01T09:50:33.849Z,41.01
2017-02-01T09:51:44.353Z,41.01
2017-02-01T09:52:54.634Z,41.11
2017-02-01T09:54:05.286Z,41.01
2017-02-01T09:55:14.754Z,41.01
2017-02-01T09:56:25.012Z,40.91
2017-02-01T09:57:35.537Z,40.91
2017-02-01T09:58:46.183Z,40.91
2017-02-01T09:59:56.824Z,41.01
2017-02-01T10:01:07.486Z,40.91
2017-02-01T10:02:17.751Z,40.81
2017-02-01T10:03:27.752Z,40.81
2017-02-01T10:04:37.614Z,40.91
2017-02-01T10:05:47.465Z,40.91
2017-02-01T10:06:58.127Z,41.11
2017-02-01T10:08:08.426Z,41.11
2017-02-01T10:09:18.933Z,41.01
2017-02-01T10:10:29.195Z,41.01
2017-02-01T10:11:39.454Z,41.01
2017-02-01T10:12:49.707Z,41.11
2017-02-01T10:13:59.554Z,41.01
2017-02-01T10:15:10.458Z,41.01
2017-02-01T10:16:20.703Z,41.01
2017-02-01T10:17:30.563Z,40.91
2017-02-01T10:18:41.200Z,41.01
2017-02-01T10:19:51.836Z,41.11
2017-02-01T10:21:02.729Z,41.11
2017-02-01T10:22:13.017Z,40.91
2017-02-01T10:23:23.667Z,41.01
2017-02-01T10:24:33.916Z,41.01
2017-02-01T10:25:44.169Z,41.01
2017-02-01T10:26:55.044Z,41.11
2017-02-01T10:28:04.897Z,41.01
2017-02-01T10:29:14.780Z,41.11
2017-02-01T10:30:25.026Z,41.01
2017-02-01T10:31:35.667Z,41.11
2017-02-01T10:32:46.181Z,41.11
2017-02-01T10:33:56.046Z,41.01
2017-02-01T10:35:06.318Z,41.11
2017-02-01T10:36:16.961Z,41.01
2017-02-01T10:37:27.222Z,41.01
2017-02-01T10:38:38.123Z,41.11
2017-02-01T10:39:48.365Z,41.11
2017-02-01T10:40:59.012Z,41.11
2017-02-01T10:42:08.479Z,41.01
2017-02-01T10:43:19.147Z,41.01
2017-02-01T10:44:29.259Z,41.2
2017-02-01T10:45:39.896Z,41.2
2017-02-01T10:46:49.362Z,41.2
2017-02-01T10:47:59.986Z,41.2
2017-02-01T10:49:10.678Z,41.2
2017-02-01T10:50:21.583Z,41.2
2017-02-01T10:51:32.271Z,41.11
2017-02-01T10:52:42.915Z,41.39
2017-02-01T10:53:52.780Z,41.11
2017-02-01T10:55:03.428Z,41.11
2017-02-01T10:56:13.176Z,41.3
2017-02-01T10:57:23.863Z,41.08
2017-02-01T10:58:34.122Z,41.11
2017-02-01T10:59:44.392Z,41.18
2017-02-01T11:00:54.661Z,41.18
2017-02-01T11:02:04.288Z,41.3
2017-02-01T11:03:14.548Z,41.08
2017-02-01T11:04:24.800Z,41.38
2017-02-01T11:05:35.439Z,41.38
2017-02-01T11:06:46.079Z,41.59
2017-02-01T11:07:56.980Z,41.76
2017-02-01T11:09:06.842Z,41.66
2017-02-01T11:10:17.477Z,41.86
2017-02-01T11:11:27.721Z,41.76
2017-02-01T11:12:37.959Z,41.76
2017-02-01T11:13:48.839Z,41.56
2017-02-01T11:14:59.094Z,41.66
2017-02-01T11:16:09.748Z,41.56
2017-02-01T11:17:19.649Z,41.66
2017-02-01T11:18:30.311Z,41.38
2017-02-01T11:19:41.250Z,41.56
2017-02-01T11:20:51.920Z,41.56
2017-02-01T11:22:02.566Z,41.56
2017-02-01T11:23:13.220Z,41.47
2017-02-01T11:24:23.080Z,41.47
2017-02-01T11:25:33.458Z,41.56
2017-02-01T11:26:44.096Z,41.76
2017-02-01T11:27:54.741Z,41.66
2017-02-01T11:29:04.618Z,41.95
2017-02-01T11:30:14.485Z,41.76
2017-02-01T11:31:25.006Z,41.56
2017-02-01T11:32:35.246Z,41.56
2017-02-01T11:33:45.497Z,41.66
2017-02-01T11:34:55.747Z,41.56
2017-02-01T11:36:06.393Z,41.66
2017-02-01T11:37:16.893Z,41.86
2017-02-01T11:38:27.550Z,41.56
2017-02-01T11:39:38.184Z,41.66
2017-02-01T11:40:48.862Z,41.76
2017-02-01T11:41:59.109Z,41.86
2017-02-01T11:43:09.253Z,41.66
2017-02-01T11:44:19.914Z,41.86
2017-02-01T11:45:30.177Z,41.76
2017-02-01T11:46:40.809Z,41.86
2017-02-01T11:47:51.446Z,41.66
2017-02-01T11:49:02.360Z,41.86
2017-02-01T11:50:13.014Z,41.66
2017-02-01T11:51:22.961Z,41.66
2017-02-01T11:52:33.617Z,41.56
2017-02-01T11:53:43.879Z,41.56
2017-02-01T11:54:54.392Z,41.56
2017-02-01T11:56:05.041Z,41.66
2017-02-01T11:57:15.306Z,41.66
2017-02-01T11:58:25.959Z,41.56
2017-02-01T11:59:35.454Z,41.66
2017-02-01T12:00:46.382Z,41.66
2017-02-01T12:01:56.298Z,41.66
2017-02-01T12:03:06.561Z,41.95
2017-02-01T12:04:16.816Z,41.66
2017-02-01T12:05:27.458Z,41.66
2017-02-01T12:06:37.951Z,41.56
2017-02-01T12:07:48.596Z,41.56
2017-02-01T12:08:59.263Z,41.76
2017-02-01T12:10:08.748Z,42.05
2017-02-01T12:11:18.995Z,41.95
2017-02-01T12:12:29.501Z,41.93
2017-02-01T12:13:39.770Z,41.95
2017-02-01T12:14:50.018Z,41.86
2017-02-01T12:15:59.885Z,41.95
2017-02-01T12:17:09.780Z,41.76
2017-02-01T12:18:19.895Z,41.83
2017-02-01T12:19:30.375Z,41.76
2017-02-01T12:20:40.643Z,41.76
2017-02-01T12:21:50.890Z,41.55
2017-02-01T12:23:00.390Z,41.83
2017-02-01T12:24:10.966Z,41.86
2017-02-01T12:25:21.609Z,41.95
2017-02-01T12:26:31.476Z,41.95
2017-02-01T12:27:42.137Z,41.93
2017-02-01T12:28:52.399Z,41.66
2017-02-01T12:30:02.533Z,41.95
2017-02-01T12:31:12.816Z,41.66
2017-02-01T12:32:23.072Z,41.83
2017-02-01T12:33:33.729Z,41.86
2017-02-01T12:34:44.385Z,41.86
2017-02-01T12:35:55.287Z,41.95
2017-02-01T12:37:05.942Z,41.86
2017-02-01T12:38:16.192Z,41.93
2017-02-01T12:39:26.825Z,41.95
2017-02-01T12:40:37.066Z,41.86
2017-02-01T12:41:47.565Z,41.76
2017-02-01T12:42:57.834Z,41.86
2017-02-01T12:44:08.079Z,41.95
2017-02-01T12:45:18.333Z,41.86
2017-02-01T12:46:28.234Z,41.66
2017-02-01T12:47:38.744Z,41.56
2017-02-01T12:48:49.416Z,41.56
2017-02-01T12:49:59.332Z,41.66
2017-02-01T12:51:09.624Z,41.66
2017-02-01T12:52:19.927Z,41.76
2017-02-01T12:53:30.495Z,41.66
2017-02-01T12:54:40.818Z,41.66
2017-02-01T12:55:51.090Z,41.55
2017-02-01T12:57:01.743Z,41.76
2017-02-01T12:58:12.005Z,41.66
2017-02-01T12:59:22.925Z,41.66
2017-02-01T13:00:33.581Z,41.83
2017-02-01T13:01:43.274Z,41.74
2017-02-01T13:02:53.555Z,41.76
2017-02-01T13:04:03.129Z,41.76
2017-02-01T13:05:13.463Z,41.64
2017-02-01T13:06:24.104Z,41.66
2017-02-01T13:07:34.373Z,41.56
2017-02-01T13:08:43.918Z,41.93
2017-02-01T13:09:54.713Z,41.64
2017-02-01T13:11:05.265Z,41.56
2017-02-01T13:12:15.550Z,41.55
2017-02-01T13:13:25.414Z,41.64
2017-02-01T13:14:36.053Z,41.95
2017-02-01T13:15:46.692Z,41.56
2017-02-01T13:16:57.572Z,41.86
2017-02-01T13:18:07.871Z,41.56
2017-02-01T13:19:18.194Z,41.86
2017-02-01T13:20:28.513Z,41.56
2017-02-01T13:21:38.412Z,41.47
2017-02-01T13:22:48.594Z,41.47
2017-02-01T13:23:58.926Z,41.66
2017-02-01T13:25:09.640Z,41.47
2017-02-01T13:26:19.295Z,41.47
2017-02-01T13:27:29.998Z,41.56
2017-02-01T13:28:40.921Z,41.56
2017-02-01T13:29:51.621Z,41.66
2017-02-01T13:31:01.554Z,41.56
2017-02-01T13:32:11.830Z,41.66
2017-02-01T13:33:21.349Z,41.76
2017-02-01T13:34:32.135Z,41.76
2017-02-01T13:35:42.814Z,41.76
2017-02-01T13:36:52.743Z,41.76
2017-02-01T13:38:03.024Z,41.86
2017-02-01T13:39:13.892Z,41.86
2017-02-01T13:40:24.048Z,41.56
2017-02-01T13:41:34.359Z,41.47
2017-02-01T13:42:44.216Z,41.76
2017-02-01T13:43:54.069Z,41.76
2017-02-01T13:45:04.721Z,41.86
2017-02-01T13:46:15.249Z,41.47
2017-02-01T13:47:25.153Z,41.56
2017-02-01T13:48:35.802Z,41.47
2017-02-01T13:49:45.697Z,41.28
2017-02-01T13:50:55.941Z,41.47
2017-02-01T13:52:06.843Z,41.47
2017-02-01T13:53:17.096Z,41.47
2017-02-01T13:54:27.740Z,41.47
2017-02-01T13:55:38.008Z,41.47
2017-02-01T13:56:47.495Z,41.47
2017-02-01T13:57:58.403Z,41.38
2017-02-01T13:59:08.659Z,41.47
2017-02-01T14:00:18.912Z,41.47
2017-02-01T14:01:28.783Z,41.18
2017-02-01T14:02:39.049Z,41.66
2017-02-01T14:03:49.597Z,41.08
2017-02-01T14:05:00.244Z,41.28
2017-02-01T14:06:10.499Z,41.38
2017-02-01T14:07:21.160Z,41.47
2017-02-01T14:08:30.644Z,41.38
2017-02-01T14:09:41.179Z,41.66
2017-02-01T14:10:51.824Z,41.28
2017-02-01T14:12:02.455Z,41.86
2017-02-01T14:13:12.705Z,41.47
2017-02-01T14:14:23.382Z,41.38
2017-02-01T14:15:33.503Z,41.47
2017-02-01T14:16:43.372Z,41.47
2017-02-01T14:17:54.005Z,41.28
2017-02-01T14:19:04.270Z,41.47
2017-02-01T14:20:14.150Z,41.18
2017-02-01T14:21:24.663Z,41.28
2017-02-01T14:22:35.303Z,41.47
2017-02-01T14:23:45.159Z,41.56
2017-02-01T14:24:55.405Z,41.56
2017-02-01T14:26:05.654Z,41.28
2017-02-01T14:27:16.168Z,41.76
2017-02-01T14:28:26.802Z,41.86
2017-02-01T14:29:36.665Z,41.86
2017-02-01T14:30:46.954Z,41.76
2017-02-01T14:31:57.188Z,41.76
2017-02-01T14:33:07.985Z,41.76
2017-02-01T14:34:18.640Z,41.56
2017-02-01T14:35:28.129Z,41.66
2017-02-01T14:36:38.396Z,41.47
2017-02-01T14:37:48.254Z,41.76
2017-02-01T14:38:58.757Z,41.66
2017-02-01T14:40:08.631Z,41.66
2017-02-01T14:41:18.505Z,41.66
2017-02-01T14:42:28.782Z,41.56
2017-02-01T14:43:38.661Z,41.56
2017-02-01T14:44:49.563Z,41.56
2017-02-01T14:45:59.821Z,41.55
2017-02-01T14:47:10.108Z,41.56
2017-02-01T14:48:19.582Z,41.47
2017-02-01T14:49:29.881Z,41.55
2017-02-01T14:50:40.785Z,41.56
2017-02-01T14:51:51.727Z,41.56
2017-02-01T14:53:01.597Z,41.56
2017-02-01T14:54:11.474Z,41.56
2017-02-01T14:55:21.725Z,41.47
2017-02-01T14:56:32.242Z,41.47
2017-02-01T14:57:42.502Z,41.64
2017-02-01T14:58:52.767Z,41.64
2017-02-01T15:00:02.640Z,41.45
2017-02-01T15:01:12.906Z,41.47
2017-02-01T15:02:23.319Z,41.56
2017-02-01T15:03:33.584Z,41.47
2017-02-01T15:04:43.836Z,41.45
2017-02-01T15:05:54.084Z,41.47
2017-02-01T15:07:03.942Z,41.55
2017-02-01T15:08:14.441Z,41.55